Labelle, Idaho
Current Conditions -  °F | °C
As of 7:03 AM on Wednesday 28 Jan 2015 (Local Time) from KRXE Reporting Station
Light Rain Light Rain  
Wind Chill: 51°   Ceiling: 200
Heat Index: 51°   Visibility: 4mi
Dew Point: 35°   Wind: 8mph
Humidity: 54%   Direction: 210°SSW
Pressure: 30.2"   Gusts: NA
Location:  43.6749°N, 111.89°W
Report Text: KRXE 281403Z AUTO 21007KT 4SM -RA OVC002 11/02 A3020 RMK AO2 P0000 T01060017
Loading
Personal Weather Stations






























Interactive Weather Map New forecast layout! Learn more

10-Day Weather Forecast

Advertisements
Track Severe Weather on mobile